Time;durP1;ratioP1;P1;durP2;ratioP2;P2;SDS_P1;SDS_P2;PMS_P1;PMS_P2;Temp;Humidity;BMP_temperature;BMP_pressure;BME280_temperature;BME280_humidity;BME280_pressure;Samples;Min_cycle;Max_cycle;Signal;HPM_P1;HPM_P2
2022/01/16 00:04:24;;;;;;;;;20.75;14.75;;;;;-149.97;100.00;66579.34;5034553;28;45414;-72
2022/01/16 00:06:50;;;;;;;;;23.00;20.00;;;;;-149.97;100.00;66579.34;5033410;28;46039;-72
2022/01/16 00:09:16;;;;;;;;;21.25;18.25;;;;;-149.97;100.00;66579.34;5033949;28;45410;-72
2022/01/16 00:11:42;;;;;;;;;22.25;18.75;;;;;-149.97;100.00;66579.34;5031280;28;45406;-71
2022/01/16 00:14:09;;;;;;;;;20.50;17.75;;;;;-149.97;100.00;66579.34;5035297;28;45445;-72
2022/01/16 00:16:35;;;;;;;;;21.75;19.50;;;;;-149.97;100.00;66579.34;5033718;28;46253;-70
2022/01/16 00:19:00;;;;;;;;;19.75;17.75;;;;;-149.97;100.00;66579.34;5030502;28;45307;-73
2022/01/16 00:21:36;;;;;;;;;20.50;19.00;;;;;-149.97;100.00;66579.34;5031179;28;45386;-71
2022/01/16 00:24:03;;;;;;;;;20.75;19.50;;;;;-149.97;100.00;66579.34;5034939;28;45233;-72
2022/01/16 00:26:28;;;;;;;;;21.00;15.50;;;;;-149.97;100.00;66579.34;5019979;28;47323;-72
2022/01/16 00:28:54;;;;;;;;;18.25;15.00;;;;;-149.97;100.00;66579.34;5029157;28;45533;-72
2022/01/16 00:31:21;;;;;;;;;15.00;15.00;;;;;-149.97;100.00;66579.34;5030034;28;45370;-72
2022/01/16 00:33:47;;;;;;;;;20.75;16.25;;;;;-149.97;100.00;66579.34;5032879;28;45720;-71
2022/01/16 00:36:18;;;;;;;;;17.25;12.75;;;;;-149.97;100.00;66579.34;5019412;28;46260;-72
2022/01/16 00:38:45;;;;;;;;;21.25;17.75;;;;;-149.97;100.00;66579.34;5034974;28;45415;-71
2022/01/16 00:41:12;;;;;;;;;20.50;17.75;;;;;-149.97;100.00;66579.34;5029272;28;45434;-72
2022/01/16 00:43:38;;;;;;;;;21.50;18.50;;;;;-149.97;100.00;66579.34;5030388;28;45628;-72
2022/01/16 00:46:04;;;;;;;;;22.50;17.75;;;;;-149.97;100.00;66579.34;5029379;28;46238;-71
2022/01/16 00:48:29;;;;;;;;;21.50;17.50;;;;;-149.97;100.00;66579.34;5030617;28;45524;-71
2022/01/16 00:50:55;;;;;;;;;19.00;18.25;;;;;-149.97;100.00;66579.34;5032087;28;45531;-71
2022/01/16 00:53:20;;;;;;;;;18.75;18.50;;;;;-149.97;100.00;66579.34;5034547;28;45373;-72
2022/01/16 00:55:45;;;;;;;;;17.00;16.00;;;;;-149.97;100.00;66579.34;5031109;28;45501;-71
2022/01/16 00:58:11;;;;;;;;;19.00;16.00;;;;;-149.97;100.00;66579.34;5008557;28;46126;-72
2022/01/16 01:00:37;;;;;;;;;17.50;16.50;;;;;-149.97;100.00;66579.34;5020139;28;45272;-72
2022/01/16 01:03:02;;;;;;;;;20.00;15.75;;;;;-149.97;100.00;66579.34;5033772;28;45379;-72
2022/01/16 01:05:28;;;;;;;;;20.25;18.00;;;;;-149.97;100.00;66579.34;5028823;28;46268;-71
2022/01/16 01:07:54;;;;;;;;;18.50;16.50;;;;;-149.97;100.00;66579.34;5030477;28;45304;-72
2022/01/16 01:10:26;;;;;;;;;19.25;18.00;;;;;-149.97;100.00;66579.34;5015817;28;45420;-70
2022/01/16 01:12:54;;;;;;;;;21.00;17.75;;;;;-149.97;100.00;66579.34;5032939;28;45366;-72
2022/01/16 01:15:26;;;;;;;;;24.00;21.25;;;;;-149.97;100.00;66579.34;5033124;28;46082;-72
2022/01/16 01:17:52;;;;;;;;;17.50;15.75;;;;;-149.97;100.00;66579.34;5033456;28;45495;-72
2022/01/16 01:20:21;;;;;;;;;20.25;16.75;;;;;-149.97;100.00;66579.34;5034462;28;45472;-71
2022/01/16 01:22:49;;;;;;;;;22.25;18.75;;;;;-149.97;100.00;66579.34;5033338;28;45520;-71
2022/01/16 01:25:15;;;;;;;;;20.00;18.75;;;;;-149.97;100.00;66579.34;5032602;28;47209;-71
2022/01/16 01:27:44;;;;;;;;;23.00;18.00;;;;;-149.97;100.00;66579.34;5029329;28;45466;-72
2022/01/16 01:30:18;;;;;;;;;17.75;17.75;;;;;-149.97;100.00;66579.34;5034112;28;45535;-71
2022/01/16 01:32:47;;;;;;;;;20.50;16.00;;;;;-149.97;100.00;66579.34;5031946;28;45512;-71
2022/01/16 01:35:15;;;;;;;;;18.50;17.50;;;;;-149.97;100.00;66579.34;5037338;28;45488;-71
2022/01/16 01:37:42;;;;;;;;;17.75;17.75;;;;;-149.97;100.00;66579.34;5036479;28;45437;-72
2022/01/16 01:40:15;;;;;;;;;18.25;16.25;;;;;-149.97;100.00;66579.34;5036137;28;45483;-70
2022/01/16 01:51:02;;;;;;;;;21.00;18.00;;;;;-149.97;100.00;66579.34;5023365;28;45435;-71
2022/01/16 01:51:06;;;;;;;;;23.25;18.75;;;;;-149.97;100.00;66579.34;5018423;28;45290;-71
2022/01/16 01:53:32;;;;;;;;;17.00;15.75;;;;;-149.97;100.00;66579.34;5017791;28;45228;-71
2022/01/16 01:55:58;;;;;;;;;17.75;16.25;;;;;-149.97;100.00;66579.34;5021508;28;45449;-72
2022/01/16 01:58:23;;;;;;;;;18.00;15.00;;;;;-149.97;100.00;66579.34;5030723;28;45278;-71
2022/01/16 02:00:49;;;;;;;;;16.75;15.00;;;;;-149.97;100.00;66579.34;5033699;28;46093;-72
2022/01/16 02:03:34;;;;;;;;;20.75;18.25;;;;;-149.97;100.00;66579.34;5031303;28;45369;-71
2022/01/16 02:05:59;;;;;;;;;18.00;15.75;;;;;-149.97;100.00;66579.34;5029505;28;46361;-71
2022/01/16 02:08:25;;;;;;;;;19.75;15.25;;;;;-149.97;100.00;66579.34;5037291;28;45339;-71
2022/01/16 02:10:51;;;;;;;;;16.75;15.00;;;;;-149.97;100.00;66579.34;5029114;28;46063;-71
2022/01/16 02:13:25;;;;;;;;;18.00;15.25;;;;;-149.97;100.00;66579.34;5030521;28;45545;-71
2022/01/16 02:27:59;;;;;;;;;19.50;16.00;;;;;-149.97;100.00;66579.34;5035740;28;46307;-71
2022/01/16 02:35:34;;;;;;;;;20.25;18.00;;;;;-149.97;100.00;66579.34;4913388;28;45739;-71
2022/01/16 02:37:59;;;;;;;;;18.00;12.75;;;;;-149.97;100.00;66579.34;4901221;28;47117;-72
2022/01/16 02:40:27;;;;;;;;;16.75;15.25;;;;;-149.97;100.00;66579.34;4901693;28;45469;-71
2022/01/16 02:42:52;;;;;;;;;17.25;17.00;;;;;-149.97;100.00;66579.34;4897983;28;45496;-71
2022/01/16 02:45:46;;;;;;;;;16.25;16.25;;;;;-149.97;100.00;66579.34;4903604;28;45674;-71
2022/01/16 02:48:07;;;;;;;;;17.50;16.25;;;;;-149.97;100.00;66579.34;4889172;29;46045;-72
2022/01/16 02:50:37;;;;;;;;;20.50;16.50;;;;;-149.97;100.00;66579.34;4908916;28;45390;-71
2022/01/16 02:53:12;;;;;;;;;15.75;15.75;;;;;-149.97;100.00;66579.34;4901995;28;45448;-72
2022/01/16 02:55:41;;;;;;;;;20.00;16.00;;;;;-149.97;100.00;66579.34;4901356;28;45581;-71
2022/01/16 02:58:06;;;;;;;;;17.00;17.00;;;;;-149.97;100.00;66579.34;4900458;28;46296;-72
2022/01/16 03:00:32;;;;;;;;;15.25;14.50;;;;;-149.97;100.00;66579.34;4927689;28;45543;-71
2022/01/16 03:02:58;;;;;;;;;16.50;15.75;;;;;-149.97;100.00;66579.34;4993739;28;45359;-71
2022/01/16 03:05:23;;;;;;;;;13.75;12.75;;;;;-149.97;100.00;66579.34;4995036;28;45383;-70
2022/01/16 03:07:49;;;;;;;;;16.75;14.75;;;;;-149.97;100.00;66579.34;4991458;28;45391;-71
2022/01/16 03:12:51;;;;;;;;;16.50;16.00;;;;;-149.97;100.00;66579.34;5013096;28;45976;-72
2022/01/16 03:15:18;;;;;;;;;14.25;14.25;;;;;-149.97;100.00;66579.34;5035117;28;45505;-71
2022/01/16 03:23:19;;;;;;;;;18.75;16.75;;;;;-149.97;100.00;66579.34;5030826;28;45227;-72
2022/01/16 03:25:45;;;;;;;;;17.50;14.75;;;;;-149.97;100.00;66579.34;5022951;28;45459;-72
2022/01/16 03:28:10;;;;;;;;;19.75;17.50;;;;;-149.97;100.00;66579.34;5021280;28;45329;-71
2022/01/16 03:30:37;;;;;;;;;16.50;14.00;;;;;-149.97;100.00;66579.34;5015653;28;45456;-72
2022/01/16 03:33:03;;;;;;;;;15.75;15.25;;;;;-149.97;100.00;66579.34;5028486;28;45495;-72
2022/01/16 03:35:28;;;;;;;;;19.75;15.00;;;;;-149.97;100.00;66579.34;5035692;28;45296;-72
2022/01/16 03:37:53;;;;;;;;;16.25;14.00;;;;;-149.97;100.00;66579.34;5033800;28;45448;-72
2022/01/16 03:40:21;;;;;;;;;17.00;17.00;;;;;-149.97;100.00;66579.34;5032332;28;45518;-72
2022/01/16 03:42:48;;;;;;;;;17.75;16.50;;;;;-149.97;100.00;66579.34;5022694;28;45366;-71
2022/01/16 03:45:14;;;;;;;;;21.00;17.25;;;;;-149.97;100.00;66579.34;5031802;28;45449;-72
2022/01/16 03:47:39;;;;;;;;;18.25;13.00;;;;;-149.97;100.00;66579.34;5035146;28;47415;-72
2022/01/16 03:50:05;;;;;;;;;16.25;14.50;;;;;-149.97;100.00;66579.34;5034828;28;45428;-72
2022/01/16 03:52:31;;;;;;;;;19.50;14.75;;;;;-149.97;100.00;66579.34;5030863;28;45373;-71
2022/01/16 03:54:56;;;;;;;;;19.50;15.50;;;;;-149.97;100.00;66579.34;5022868;28;45624;-71
2022/01/16 03:57:23;;;;;;;;;20.50;16.25;;;;;-149.97;100.00;66579.34;5033940;28;46486;-71
2022/01/16 03:59:48;;;;;;;;;18.25;14.25;;;;;-149.97;100.00;66579.34;5032782;28;45534;-71
2022/01/16 04:02:14;;;;;;;;;15.25;15.25;;;;;-149.97;100.00;66579.34;5035532;28;45585;-71
2022/01/16 04:04:39;;;;;;;;;18.25;17.00;;;;;-149.97;100.00;66579.34;5030118;28;45590;-72
2022/01/16 04:07:06;;;;;;;;;16.00;15.50;;;;;-149.97;100.00;66579.34;5005130;28;46946;-72
2022/01/16 04:09:31;;;;;;;;;17.75;14.50;;;;;-149.97;100.00;66579.34;5028668;28;45496;-71
2022/01/16 04:11:57;;;;;;;;;14.75;13.00;;;;;-149.97;100.00;66579.34;5028805;28;45540;-72
2022/01/16 04:17:13;;;;;;;;;18.00;17.00;;;;;-149.97;100.00;66579.34;5034350;28;45896;-71
2022/01/16 04:19:38;;;;;;;;;15.00;11.50;;;;;-149.97;100.00;66579.34;5031272;28;45529;-72
2022/01/16 04:22:04;;;;;;;;;14.25;14.25;;;;;-149.97;100.00;66579.34;5029796;28;45563;-71
2022/01/16 04:24:29;;;;;;;;;18.00;12.25;;;;;-149.97;100.00;66579.34;5027295;28;45336;-72
2022/01/16 04:26:54;;;;;;;;;16.00;15.00;;;;;-149.97;100.00;66579.34;5033976;28;46064;-72
2022/01/16 04:29:20;;;;;;;;;11.25;10.00;;;;;-149.97;100.00;66579.34;5030705;28;45359;-71
2022/01/16 04:31:45;;;;;;;;;16.50;14.50;;;;;-149.97;100.00;66579.34;5026939;28;47991;-72
2022/01/16 04:34:11;;;;;;;;;16.75;15.50;;;;;-149.97;100.00;66579.34;5025922;28;45307;-71
2022/01/16 04:36:37;;;;;;;;;16.00;14.75;;;;;-149.97;100.00;66579.34;5032783;28;47182;-72
2022/01/16 04:39:09;;;;;;;;;16.75;11.00;;;;;-149.97;100.00;66579.34;5017471;28;45421;-72
2022/01/16 04:44:19;;;;;;;;;10.50;10.50;;;;;-149.97;100.00;66579.34;5028157;28;45323;-71
2022/01/16 04:46:46;;;;;;;;;15.00;13.50;;;;;-149.97;100.00;66579.34;5025202;28;46042;-70
2022/01/16 04:49:12;;;;;;;;;18.25;13.50;;;;;-149.97;100.00;66579.34;5023743;28;45375;-72
2022/01/16 04:51:38;;;;;;;;;15.00;13.75;;;;;-149.97;100.00;66579.34;5012106;28;45605;-72
2022/01/16 04:54:04;;;;;;;;;14.25;12.25;;;;;-149.97;100.00;66579.34;5018820;28;45264;-73
2022/01/16 04:56:29;;;;;;;;;18.75;15.25;;;;;-149.97;100.00;66579.34;5034547;28;45446;-71
2022/01/16 04:58:55;;;;;;;;;16.25;14.75;;;;;-149.97;100.00;66579.34;5028924;28;45293;-70
2022/01/16 05:01:20;;;;;;;;;16.00;13.50;;;;;-149.97;100.00;66579.34;5029558;28;45295;-71
2022/01/16 05:03:46;;;;;;;;;15.75;15.75;;;;;-149.97;100.00;66579.34;5030450;28;45475;-71
2022/01/16 05:06:11;;;;;;;;;15.00;13.50;;;;;-149.97;100.00;66579.34;5035665;28;47132;-70
2022/01/16 05:08:36;;;;;;;;;17.50;14.25;;;;;-149.97;100.00;66579.34;5037220;28;45573;-71
2022/01/16 05:11:02;;;;;;;;;18.75;14.25;;;;;-149.97;100.00;66579.34;5037388;28;45470;-71
2022/01/16 05:18:41;;;;;;;;;19.75;14.25;;;;;-149.97;100.00;66579.34;5037053;28;45303;-71
2022/01/16 05:21:07;;;;;;;;;15.00;13.75;;;;;-149.97;100.00;66579.34;4989296;28;45305;-71
2022/01/16 05:23:33;;;;;;;;;18.25;16.00;;;;;-149.97;100.00;66579.34;5016150;28;45299;-71
2022/01/16 05:26:00;;;;;;;;;14.00;12.75;;;;;-149.97;100.00;66579.34;5036808;28;45552;-71
2022/01/16 05:28:25;;;;;;;;;17.00;14.25;;;;;-149.97;100.00;66579.34;5035119;28;45444;-72
2022/01/16 05:30:51;;;;;;;;;14.75;14.25;;;;;-149.97;100.00;66579.34;5034278;28;45418;-72
2022/01/16 05:33:17;;;;;;;;;11.50;11.00;;;;;-149.97;100.00;66579.34;5026346;28;45598;-71
2022/01/16 05:35:42;;;;;;;;;13.75;11.75;;;;;-149.97;100.00;66579.34;5016469;28;47210;-72
2022/01/16 05:38:08;;;;;;;;;14.00;13.50;;;;;-149.97;100.00;66579.34;5036439;28;45405;-71
2022/01/16 05:40:34;;;;;;;;;16.25;13.25;;;;;-149.97;100.00;66579.34;5032655;28;45393;-72
2022/01/16 05:42:59;;;;;;;;;11.75;9.00;;;;;-149.97;100.00;66579.34;5024788;28;45405;-72
2022/01/16 05:45:25;;;;;;;;;16.75;13.00;;;;;-149.97;100.00;66579.34;5020220;28;47085;-71
2022/01/16 05:47:50;;;;;;;;;14.00;13.00;;;;;-149.97;100.00;66579.34;5012727;28;45574;-70
2022/01/16 05:50:16;;;;;;;;;14.25;12.75;;;;;-149.97;100.00;66579.34;5035420;28;45698;-71
2022/01/16 05:52:42;;;;;;;;;16.25;14.75;;;;;-149.97;100.00;66579.34;5036576;28;45378;-70
2022/01/16 05:55:08;;;;;;;;;13.75;12.25;;;;;-149.97;100.00;66579.34;5034226;28;46113;-72
2022/01/16 05:57:33;;;;;;;;;14.25;12.50;;;;;-149.97;100.00;66579.34;5014625;28;45510;-72
2022/01/16 05:59:59;;;;;;;;;18.00;13.50;;;;;-149.97;100.00;66579.34;5031758;28;45333;-72
2022/01/16 06:02:26;;;;;;;;;13.75;12.75;;;;;-149.97;100.00;66579.34;5015903;28;45531;-71
2022/01/16 06:04:52;;;;;;;;;15.00;11.75;;;;;-149.97;100.00;66579.34;5030314;28;46180;-70
2022/01/16 06:07:18;;;;;;;;;12.25;12.25;;;;;-149.97;100.00;66579.34;5031720;28;45354;-70
2022/01/16 06:09:43;;;;;;;;;17.00;12.75;;;;;-149.97;100.00;66579.34;5021643;28;45364;-71
2022/01/16 06:12:09;;;;;;;;;15.75;13.50;;;;;-149.97;100.00;66579.34;5032494;28;45296;-72
2022/01/16 06:14:34;;;;;;;;;16.00;12.00;;;;;-149.97;100.00;66579.34;5037155;28;46043;-71
2022/01/16 06:17:00;;;;;;;;;14.25;13.50;;;;;-149.97;100.00;66579.34;5034432;28;45342;-72
2022/01/16 06:19:25;;;;;;;;;14.00;13.00;;;;;-149.97;100.00;66579.34;5031418;28;45460;-72
2022/01/16 06:21:50;;;;;;;;;12.75;12.75;;;;;-149.97;100.00;66579.34;5019510;28;45338;-71
2022/01/16 06:24:16;;;;;;;;;16.50;13.75;;;;;-149.97;100.00;66579.34;5035833;28;45818;-71
2022/01/16 06:26:42;;;;;;;;;13.50;11.75;;;;;-149.97;100.00;66579.34;5035660;28;45448;-71
2022/01/16 06:29:08;;;;;;;;;15.50;14.00;;;;;-149.97;100.00;66579.34;5036430;28;45427;-72
2022/01/16 06:31:33;;;;;;;;;15.50;15.00;;;;;-149.97;100.00;66579.34;5024168;28;45557;-71
2022/01/16 06:34:00;;;;;;;;;10.75;10.75;;;;;-149.97;100.00;66579.34;5032898;28;46702;-72
2022/01/16 06:36:26;;;;;;;;;12.75;11.75;;;;;-149.97;100.00;66579.34;5033598;28;45304;-72
2022/01/16 06:38:53;;;;;;;;;14.50;14.50;;;;;-149.97;100.00;66579.34;5035298;28;45641;-72
2022/01/16 06:41:18;;;;;;;;;14.00;13.50;;;;;-149.97;100.00;66579.34;5034966;28;45507;-72
2022/01/16 06:43:44;;;;;;;;;14.25;12.00;;;;;-149.97;100.00;66579.34;5031099;28;47033;-72
2022/01/16 06:46:09;;;;;;;;;16.00;12.00;;;;;-149.97;100.00;66579.34;5034494;28;45478;-72
2022/01/16 06:48:35;;;;;;;;;12.00;10.25;;;;;-149.97;100.00;66579.34;5012549;28;45524;-71
2022/01/16 06:51:00;;;;;;;;;13.50;13.25;;;;;-149.97;100.00;66579.34;5034434;28;45607;-72
2022/01/16 06:53:26;;;;;;;;;15.75;13.75;;;;;-149.97;100.00;66579.34;5024010;28;46203;-71
2022/01/16 06:55:51;;;;;;;;;11.50;11.50;;;;;-149.97;100.00;66579.34;5031744;28;45434;-71
2022/01/16 06:58:17;;;;;;;;;16.50;13.00;;;;;-149.97;100.00;66579.34;5016856;28;45509;-72
2022/01/16 07:00:43;;;;;;;;;15.75;11.75;;;;;-149.97;100.00;66579.34;5019373;28;45392;-71
2022/01/16 07:03:09;;;;;;;;;15.50;11.50;;;;;-149.97;100.00;66579.34;5035182;28;46380;-72
2022/01/16 07:05:34;;;;;;;;;12.50;10.50;;;;;-149.97;100.00;66579.34;5035890;28;45387;-71
2022/01/16 07:07:59;;;;;;;;;14.50;12.75;;;;;-149.97;100.00;66579.34;5034871;28;45709;-72
2022/01/16 07:10:25;;;;;;;;;15.75;13.75;;;;;-149.97;100.00;66579.34;5034781;28;45559;-71
2022/01/16 07:12:50;;;;;;;;;14.00;14.00;;;;;-149.97;100.00;66579.34;5028787;28;46327;-72
2022/01/16 07:15:16;;;;;;;;;15.75;14.00;;;;;-149.97;100.00;66579.34;5029928;28;45292;-72
2022/01/16 07:17:41;;;;;;;;;13.50;12.50;;;;;-149.97;100.00;66579.34;5032471;28;45382;-71
2022/01/16 07:20:07;;;;;;;;;14.25;13.50;;;;;-149.97;100.00;66579.34;5032405;28;45287;-72
2022/01/16 07:22:32;;;;;;;;;14.75;11.75;;;;;-149.97;100.00;66579.34;5034558;28;46140;-72
2022/01/16 07:24:58;;;;;;;;;14.00;12.50;;;;;-149.97;100.00;66579.34;5029802;28;45837;-72
2022/01/16 07:27:23;;;;;;;;;10.00;9.50;;;;;-149.97;100.00;66579.34;5033966;28;46049;-71
2022/01/16 07:29:48;;;;;;;;;13.75;12.50;;;;;-149.97;100.00;66579.34;5035348;28;45490;-72
2022/01/16 07:32:14;;;;;;;;;16.00;12.50;;;;;-149.97;100.00;66579.34;5023481;28;45405;-72
2022/01/16 07:34:39;;;;;;;;;13.00;10.50;;;;;-149.97;100.00;66579.34;5032201;28;45352;-72
2022/01/16 07:37:05;;;;;;;;;14.00;11.50;;;;;-149.97;100.00;66579.34;5031861;28;45349;-70
2022/01/16 07:39:30;;;;;;;;;12.75;12.25;;;;;-149.97;100.00;66579.34;5022444;28;45459;-71
2022/01/16 07:41:56;;;;;;;;;15.00;10.00;;;;;-149.97;100.00;66579.34;5034877;28;46065;-71
2022/01/16 07:44:21;;;;;;;;;14.00;12.75;;;;;-149.97;100.00;66579.34;5021749;28;45524;-71
2022/01/16 07:46:47;;;;;;;;;13.00;10.75;;;;;-149.97;100.00;66579.34;5031840;28;45505;-70
2022/01/16 07:49:12;;;;;;;;;14.50;13.00;;;;;-149.97;100.00;66579.34;5029699;28;45402;-71
2022/01/16 07:51:37;;;;;;;;;13.00;11.50;;;;;-149.97;100.00;66579.34;5034184;28;45807;-70
2022/01/16 07:54:03;;;;;;;;;17.50;13.50;;;;;-149.97;100.00;66579.34;5032349;28;45416;-71
2022/01/16 07:56:28;;;;;;;;;12.00;11.50;;;;;-149.97;100.00;66579.34;5035349;28;45363;-70
2022/01/16 07:58:54;;;;;;;;;16.25;13.25;;;;;-149.97;100.00;66579.34;5032304;28;45438;-70
2022/01/16 08:01:19;;;;;;;;;12.50;11.00;;;;;-149.97;100.00;66579.34;5026678;28;46008;-70
2022/01/16 08:03:45;;;;;;;;;16.00;13.75;;;;;-149.97;100.00;66579.34;5015643;28;46166;-71
2022/01/16 08:06:13;;;;;;;;;13.50;11.25;;;;;-149.97;100.00;66579.34;5017950;28;45470;-70
2022/01/16 08:08:38;;;;;;;;;14.75;12.75;;;;;-149.97;100.00;66579.34;5031713;28;45375;-70
2022/01/16 08:11:04;;;;;;;;;15.75;13.00;;;;;-149.97;100.00;66579.34;5034232;28;45382;-70
2022/01/16 08:13:29;;;;;;;;;14.25;13.50;;;;;-149.97;100.00;66579.34;5033337;28;45485;-71
2022/01/16 08:15:55;;;;;;;;;13.75;12.25;;;;;-149.97;100.00;66579.34;5031760;28;45387;-72
2022/01/16 08:18:20;;;;;;;;;15.00;13.25;;;;;-149.97;100.00;66579.34;5031255;28;45319;-72
2022/01/16 08:20:46;;;;;;;;;13.50;12.50;;;;;-149.97;100.00;66579.34;5012731;28;47039;-72
2022/01/16 08:23:11;;;;;;;;;17.00;13.00;;;;;-149.97;100.00;66579.34;5035221;28;45430;-72
2022/01/16 08:25:36;;;;;;;;;13.75;11.25;;;;;-149.97;100.00;66579.34;5033897;28;45276;-70
2022/01/16 08:28:02;;;;;;;;;16.00;12.00;;;;;-149.97;100.00;66579.34;5012264;28;45353;-70
2022/01/16 08:30:27;;;;;;;;;10.75;10.25;;;;;-149.97;100.00;66579.34;5031966;28;46314;-70
2022/01/16 08:32:53;;;;;;;;;14.75;13.00;;;;;-149.97;100.00;66579.34;5033711;28;45516;-71
2022/01/16 08:35:19;;;;;;;;;10.75;10.75;;;;;-149.97;100.00;66579.34;5035188;28;45215;-70
2022/01/16 08:37:44;;;;;;;;;15.50;12.25;;;;;-149.97;100.00;66579.34;5028982;28;45411;-70
2022/01/16 08:40:10;;;;;;;;;12.50;11.00;;;;;-149.97;100.00;66579.34;5033679;28;46837;-71
2022/01/16 08:42:36;;;;;;;;;12.00;11.25;;;;;-149.97;100.00;66579.34;5033710;28;45553;-71
2022/01/16 08:45:03;;;;;;;;;11.25;10.25;;;;;-149.97;100.00;66579.34;5022871;28;45379;-71
2022/01/16 08:47:29;;;;;;;;;14.50;13.00;;;;;-149.97;100.00;66579.34;5028019;28;45341;-71
2022/01/16 08:49:55;;;;;;;;;12.50;12.25;;;;;-149.97;100.00;66579.34;5034527;28;46047;-71
2022/01/16 08:52:21;;;;;;;;;14.50;12.50;;;;;-149.97;100.00;66579.34;5035257;28;45486;-70
2022/01/16 08:54:47;;;;;;;;;8.75;7.75;;;;;-149.97;100.00;66579.34;5025757;28;45479;-70
2022/01/16 08:57:13;;;;;;;;;11.25;11.00;;;;;-149.97;100.00;66579.34;5037996;28;45264;-70
2022/01/16 08:59:38;;;;;;;;;11.00;10.75;;;;;-149.97;100.00;66579.34;5034899;28;45329;-71
2022/01/16 09:02:04;;;;;;;;;9.25;8.75;;;;;-149.97;100.00;66579.34;5033460;28;45655;-69
2022/01/16 09:04:29;;;;;;;;;11.75;10.25;;;;;-149.97;100.00;66579.34;5036841;28;45357;-70
2022/01/16 09:06:54;;;;;;;;;15.00;13.00;;;;;-149.97;100.00;66579.34;5035130;28;46878;-70
2022/01/16 09:09:20;;;;;;;;;12.75;12.50;;;;;-149.97;100.00;66579.34;5022615;28;45426;-70
2022/01/16 09:11:45;;;;;;;;;12.25;9.25;;;;;-149.97;100.00;66579.34;5037481;28;45345;-70
2022/01/16 09:14:10;;;;;;;;;10.50;10.00;;;;;-149.97;100.00;66579.34;5038083;28;45497;-70
2022/01/16 09:16:36;;;;;;;;;14.00;12.00;;;;;-149.97;100.00;66579.34;5031854;28;45551;-70
2022/01/16 09:19:02;;;;;;;;;10.75;10.75;;;;;-149.97;100.00;66579.34;5033518;28;46222;-70
2022/01/16 09:21:27;;;;;;;;;11.75;10.50;;;;;-149.97;100.00;66579.34;5035655;28;45577;-70
2022/01/16 09:23:53;;;;;;;;;12.25;9.75;;;;;-149.97;100.00;66579.34;5037221;28;45375;-70
2022/01/16 09:26:18;;;;;;;;;9.50;9.50;;;;;-149.97;100.00;66579.34;5033228;28;45347;-70
2022/01/16 09:28:45;;;;;;;;;9.00;8.25;;;;;-149.97;100.00;66579.34;5031795;28;46310;-70
2022/01/16 09:31:11;;;;;;;;;12.25;11.00;;;;;-149.97;100.00;66579.34;5036295;28;45589;-70
2022/01/16 09:33:37;;;;;;;;;11.25;10.25;;;;;-149.97;100.00;66579.34;5035855;28;45564;-70
2022/01/16 09:36:04;;;;;;;;;12.25;9.75;;;;;-149.97;100.00;66579.34;5037264;28;45261;-70
2022/01/16 09:38:30;;;;;;;;;14.75;10.00;;;;;-149.97;100.00;66579.34;5022650;28;46517;-70
2022/01/16 09:40:56;;;;;;;;;12.00;10.50;;;;;-149.97;100.00;66579.34;5032273;28;45478;-71
2022/01/16 09:43:22;;;;;;;;;13.00;11.25;;;;;-149.97;100.00;66579.34;5011283;28;45638;-72
2022/01/16 09:45:49;;;;;;;;;11.75;11.75;;;;;-149.97;100.00;66579.34;5022861;28;47220;-70
2022/01/16 09:48:18;;;;;;;;;12.25;9.75;;;;;-149.97;100.00;66579.34;5034184;28;46307;-70
2022/01/16 09:50:44;;;;;;;;;11.25;11.00;;;;;-149.97;100.00;66579.34;5029744;28;45444;-69
2022/01/16 09:53:09;;;;;;;;;10.00;9.25;;;;;-149.97;100.00;66579.34;5036318;28;45382;-71
2022/01/16 09:55:34;;;;;;;;;10.00;9.25;;;;;-149.97;100.00;66579.34;5036056;28;45465;-71
2022/01/16 09:58:00;;;;;;;;;10.75;10.00;;;;;-149.97;100.00;66579.34;5035807;28;45441;-69
2022/01/16 10:00:27;;;;;;;;;10.50;7.75;;;;;-149.97;100.00;66579.34;5036554;28;45321;-69
2022/01/16 10:02:53;;;;;;;;;11.00;10.00;;;;;-149.97;100.00;66579.34;5035250;28;45619;-69
2022/01/16 10:05:39;;;;;;;;;11.00;9.25;;;;;-149.97;100.00;66579.34;5033147;28;45336;-69
2022/01/16 10:08:07;;;;;;;;;11.50;7.50;;;;;-149.97;100.00;66579.34;5021040;28;46987;-69
2022/01/16 10:10:41;;;;;;;;;11.75;9.50;;;;;-149.97;100.00;66579.34;5035810;28;45280;-69
2022/01/16 10:13:32;;;;;;;;;13.50;10.25;;;;;-149.97;100.00;66579.34;5030290;28;45498;-69
2022/01/16 10:15:58;;;;;;;;;10.50;10.00;;;;;-149.97;100.00;66579.34;5033193;28;48676;-69
2022/01/16 10:18:38;;;;;;;;;8.50;8.50;;;;;-149.97;100.00;66579.34;5035469;28;47114;-69
2022/01/16 10:21:05;;;;;;;;;11.75;11.50;;;;;-149.97;100.00;66579.34;5036084;28;45434;-69
2022/01/16 10:23:39;;;;;;;;;9.50;8.00;;;;;-149.97;100.00;66579.34;5052484;28;45366;-69
2022/01/16 10:26:04;;;;;;;;;10.00;9.00;;;;;-149.97;100.00;66579.34;5027697;28;45320;-69
2022/01/16 10:28:29;;;;;;;;;8.00;8.00;;;;;-149.97;100.00;66579.34;5028581;28;46064;-69
2022/01/16 10:30:57;;;;;;;;;7.75;7.50;;;;;-149.97;100.00;66579.34;5035219;28;45605;-69
2022/01/16 10:33:32;;;;;;;;;7.75;7.75;;;;;-149.97;100.00;66579.34;5035832;28;45415;-69
2022/01/16 10:35:57;;;;;;;;;8.00;8.00;;;;;-149.97;100.00;66579.34;5036408;28;45338;-69
2022/01/16 10:38:26;;;;;;;;;9.50;8.50;;;;;-149.97;100.00;66579.34;5031783;28;45373;-69
2022/01/16 10:40:56;;;;;;;;;9.25;8.50;;;;;-149.97;100.00;66579.34;5035589;28;45432;-69
2022/01/16 10:43:36;;;;;;;;;9.00;8.25;;;;;-149.97;100.00;66579.34;5029714;28;45481;-69
2022/01/16 10:46:02;;;;;;;;;10.75;8.25;;;;;-149.97;100.00;66579.34;5030405;28;45371;-69
2022/01/16 10:48:27;;;;;;;;;11.00;11.00;;;;;-149.97;100.00;66579.34;5034970;28;45348;-69
2022/01/16 10:50:53;;;;;;;;;9.75;9.00;;;;;-149.97;100.00;66579.34;5034684;28;45446;-69
2022/01/16 10:53:24;;;;;;;;;8.75;7.75;;;;;-149.97;100.00;66579.34;5036027;28;45446;-69
2022/01/16 10:55:49;;;;;;;;;9.25;8.00;;;;;-149.97;100.00;66579.34;5030811;28;45379;-69
2022/01/16 10:58:15;;;;;;;;;8.00;7.00;;;;;-149.97;100.00;66579.34;5032173;28;47071;-69
2022/01/16 11:00:54;;;;;;;;;6.25;6.25;;;;;-149.97;100.00;66579.34;5031960;28;45415;-68
2022/01/16 11:03:21;;;;;;;;;9.25;9.25;;;;;-149.97;100.00;66579.34;5032429;28;45279;-69
2022/01/16 11:05:47;;;;;;;;;10.25;10.00;;;;;-149.97;100.00;66579.34;5033002;28;45475;-69
2022/01/16 11:08:19;;;;;;;;;7.00;7.00;;;;;-149.97;100.00;66579.34;5032852;28;46261;-69
2022/01/16 11:10:47;;;;;;;;;9.25;8.50;;;;;-149.97;100.00;66579.34;5010964;28;45663;-69
2022/01/16 11:13:21;;;;;;;;;8.75;8.50;;;;;-149.97;100.00;66579.34;5026843;28;50471;-69
2022/01/16 11:15:51;;;;;;;;;9.25;7.50;;;;;-149.97;100.00;66579.34;5027009;28;45349;-69
2022/01/16 11:18:19;;;;;;;;;8.75;7.00;;;;;-149.97;100.00;66579.34;5033494;28;47614;-69
2022/01/16 11:20:55;;;;;;;;;8.75;7.25;;;;;-149.97;100.00;66579.34;5035341;28;45472;-70
2022/01/16 11:25:47;;;;;;;;;8.00;7.00;;;;;-149.97;100.00;66579.34;5027715;28;46015;-69
2022/01/16 11:28:15;;;;;;;;;7.50;7.50;;;;;-149.97;100.00;66579.34;5028587;28;45965;-69
2022/01/16 11:30:44;;;;;;;;;12.00;9.50;;;;;-149.97;100.00;66579.34;5034916;28;45390;-69
2022/01/16 11:33:10;;;;;;;;;11.00;8.00;;;;;-149.97;100.00;66579.34;5034372;28;45516;-69
2022/01/16 11:35:41;;;;;;;;;8.50;7.75;;;;;-149.97;100.00;66579.34;5035920;28;45688;-69
2022/01/16 11:38:08;;;;;;;;;8.00;8.00;;;;;-149.97;100.00;66579.34;5035464;28;46253;-69
2022/01/16 11:40:42;;;;;;;;;8.75;6.25;;;;;-149.97;100.00;66579.34;5027679;28;45513;-69
2022/01/16 11:43:25;;;;;;;;;8.00;8.00;;;;;-149.97;100.00;66579.34;5026854;28;45469;-69